createdAt,value
2019-05-12T00:00:14.676Z,0.00
2019-05-12T00:00:53.623Z,0.00
2019-05-12T00:01:53.600Z,0.00
2019-05-12T00:02:53.584Z,0.00
2019-05-12T00:03:53.563Z,0.00
2019-05-12T00:04:53.566Z,0.00
2019-05-12T00:06:14.520Z,0.00
2019-05-12T00:06:53.497Z,0.00
2019-05-12T00:07:53.473Z,0.00
2019-05-12T00:08:53.461Z,0.00
2019-05-12T00:09:53.437Z,0.00
2019-05-12T00:10:53.416Z,0.00
2019-05-12T00:12:14.390Z,0.00
2019-05-12T00:12:53.374Z,0.00
2019-05-12T00:13:53.387Z,0.00
2019-05-12T00:14:53.327Z,0.00
2019-05-12T00:15:53.321Z,0.00
2019-05-12T00:16:53.442Z,0.00
2019-05-12T00:18:14.263Z,0.00
2019-05-12T00:18:53.939Z,0.00
2019-05-12T00:19:53.305Z,0.00
2019-05-12T00:20:53.202Z,0.00
2019-05-12T00:21:53.181Z,0.00
2019-05-12T00:22:53.169Z,0.00
2019-05-12T00:24:14.143Z,0.00
2019-05-12T00:24:53.352Z,0.00
2019-05-12T00:25:53.097Z,0.00
2019-05-12T00:26:53.158Z,0.00
2019-05-12T00:27:53.058Z,0.00
2019-05-12T00:28:53.036Z,0.00
2019-05-12T00:30:14.116Z,0.00
2019-05-12T00:30:53.141Z,0.00
2019-05-12T00:31:52.972Z,0.00
2019-05-12T00:32:54.502Z,0.00
2019-05-12T00:33:52.929Z,0.00
2019-05-12T00:34:52.910Z,0.00
2019-05-12T00:36:13.958Z,0.00
2019-05-12T00:36:52.863Z,0.00
2019-05-12T00:37:52.844Z,0.00
2019-05-12T00:38:52.816Z,0.00
2019-05-12T00:39:53.435Z,0.00
2019-05-12T00:40:52.780Z,0.00
2019-05-12T00:42:13.758Z,0.00
2019-05-12T00:42:52.738Z,0.00
2019-05-12T00:43:52.712Z,0.00
2019-05-12T00:44:52.692Z,0.00
2019-05-12T00:45:52.666Z,0.00
2019-05-12T00:46:52.651Z,0.00
2019-05-12T00:48:13.633Z,0.00
2019-05-12T00:48:52.604Z,0.00
2019-05-12T00:49:52.597Z,0.00
2019-05-12T00:50:52.560Z,0.00
2019-05-12T00:51:52.545Z,0.00
2019-05-12T00:52:52.520Z,0.00
2019-05-12T00:54:13.504Z,0.00
2019-05-12T00:54:52.486Z,0.00
2019-05-12T00:55:53.376Z,0.00
2019-05-12T00:56:52.464Z,0.00
2019-05-12T00:57:52.412Z,0.00
2019-05-12T00:58:52.396Z,0.00
2019-05-12T01:00:13.381Z,0.00
2019-05-12T01:00:52.354Z,0.00
2019-05-12T01:01:52.331Z,0.00
2019-05-12T01:02:52.319Z,0.00
2019-05-12T01:03:52.318Z,0.00
2019-05-12T01:04:52.267Z,0.00
2019-05-12T01:06:13.386Z,0.00
2019-05-12T01:06:52.229Z,0.00
2019-05-12T01:07:52.200Z,0.00
2019-05-12T01:08:52.177Z,0.00
2019-05-12T01:09:52.158Z,0.00
2019-05-12T01:10:52.138Z,0.00
2019-05-12T01:12:13.122Z,0.00
2019-05-12T01:12:52.094Z,0.00
2019-05-12T01:13:52.072Z,0.00
2019-05-12T01:14:52.140Z,0.00
2019-05-12T01:15:52.108Z,0.00
2019-05-12T01:16:52.082Z,0.00
2019-05-12T01:18:13.006Z,0.00
2019-05-12T01:18:51.969Z,0.00
2019-05-12T01:19:51.964Z,0.00
2019-05-12T01:20:51.919Z,0.00
2019-05-12T01:21:51.899Z,0.00
2019-05-12T01:22:51.878Z,0.00
2019-05-12T01:24:13.051Z,0.00
2019-05-12T01:24:51.839Z,0.00
2019-05-12T01:25:51.814Z,0.00
2019-05-12T01:26:51.798Z,0.00
2019-05-12T01:27:51.774Z,0.00
2019-05-12T01:28:51.819Z,0.00
2019-05-12T01:30:12.736Z,0.00
2019-05-12T01:30:51.707Z,0.00
2019-05-12T01:31:51.691Z,0.00
2019-05-12T01:32:51.660Z,0.00
2019-05-12T01:33:51.644Z,0.00
2019-05-12T01:34:51.620Z,0.00
2019-05-12T01:36:12.602Z,0.00
2019-05-12T01:36:51.578Z,0.00
2019-05-12T01:37:51.555Z,0.00
2019-05-12T01:38:51.538Z,0.00
2019-05-12T01:39:51.510Z,0.00
2019-05-12T01:40:51.489Z,0.00
2019-05-12T01:42:12.467Z,0.00
2019-05-12T01:42:51.451Z,0.00
2019-05-12T01:43:51.424Z,0.00
2019-05-12T01:44:51.405Z,0.00
2019-05-12T01:45:51.388Z,0.00
2019-05-12T01:46:51.363Z,0.00
2019-05-12T01:48:12.338Z,0.00
2019-05-12T01:48:51.319Z,0.00
2019-05-12T01:49:51.317Z,0.00
2019-05-12T01:50:51.274Z,0.00
2019-05-12T01:51:51.249Z,0.00
2019-05-12T01:52:51.233Z,0.00
2019-05-12T01:54:15.009Z,0.00
2019-05-12T01:54:51.186Z,0.00
2019-05-12T01:55:51.169Z,0.00
2019-05-12T01:56:51.358Z,0.00
2019-05-12T01:57:51.118Z,0.00
2019-05-12T01:58:51.099Z,0.00
2019-05-12T02:00:12.085Z,0.00
2019-05-12T02:00:51.059Z,0.00
2019-05-12T02:01:51.036Z,0.00
2019-05-12T02:02:51.011Z,0.00
2019-05-12T02:03:50.992Z,0.00
2019-05-12T02:04:50.969Z,0.00
2019-05-12T02:06:11.951Z,0.00
2019-05-12T02:06:50.924Z,0.00
2019-05-12T02:07:50.905Z,0.00
2019-05-12T02:08:50.880Z,0.00
2019-05-12T02:09:50.859Z,0.00
2019-05-12T02:10:50.836Z,0.00
2019-05-12T02:12:11.824Z,0.00
2019-05-12T02:12:50.801Z,0.00
2019-05-12T02:13:50.774Z,0.00
2019-05-12T02:14:50.748Z,0.00
2019-05-12T02:15:50.729Z,0.00
2019-05-12T02:16:50.709Z,0.00
2019-05-12T02:18:11.682Z,0.00
2019-05-12T02:18:50.665Z,0.00
2019-05-12T02:19:50.642Z,0.00
2019-05-12T02:20:50.616Z,0.00
2019-05-12T02:21:50.594Z,0.00
2019-05-12T02:22:50.580Z,0.00
2019-05-12T02:24:23.284Z,0.00
2019-05-12T02:24:50.535Z,0.00
2019-05-12T02:25:50.511Z,0.00
2019-05-12T02:26:50.488Z,0.00
2019-05-12T02:27:51.347Z,0.00
2019-05-12T02:28:50.445Z,0.00
2019-05-12T02:30:11.426Z,0.00
2019-05-12T02:30:50.550Z,0.00
2019-05-12T02:31:50.446Z,0.00
2019-05-12T02:32:55.039Z,0.00
2019-05-12T02:33:54.912Z,0.00
2019-05-12T02:34:50.322Z,0.00
2019-05-12T02:36:14.889Z,0.00
2019-05-12T02:36:50.271Z,0.00
2019-05-12T02:37:50.251Z,0.00
2019-05-12T02:38:50.230Z,0.00
2019-05-12T02:39:50.204Z,0.00
2019-05-12T02:40:50.188Z,0.00
2019-05-12T02:42:11.170Z,0.00
2019-05-12T02:42:50.142Z,0.00
2019-05-12T02:43:50.118Z,0.00
2019-05-12T02:44:50.100Z,0.00
2019-05-12T02:45:50.086Z,0.00
2019-05-12T02:46:50.065Z,0.00
2019-05-12T02:48:14.147Z,0.00
2019-05-12T02:48:50.003Z,0.00
2019-05-12T02:49:49.984Z,0.00
2019-05-12T02:50:49.966Z,0.00
2019-05-12T02:51:49.939Z,0.00
2019-05-12T02:52:49.917Z,0.00
2019-05-12T02:54:14.240Z,0.00
2019-05-12T02:54:55.583Z,0.00
2019-05-12T02:55:49.858Z,0.00
2019-05-12T02:56:49.829Z,0.00
2019-05-12T02:57:49.807Z,0.00
2019-05-12T02:58:49.783Z,0.00
2019-05-12T03:00:10.768Z,0.00
2019-05-12T03:00:49.742Z,0.00
2019-05-12T03:01:49.719Z,0.00
2019-05-12T03:02:49.713Z,0.00
2019-05-12T03:03:49.678Z,0.00
2019-05-12T03:04:49.652Z,0.00
2019-05-12T03:06:10.633Z,0.00
2019-05-12T03:06:49.608Z,0.00
2019-05-12T03:07:49.587Z,0.00
2019-05-12T03:08:49.571Z,0.00
2019-05-12T03:09:49.541Z,0.00
2019-05-12T03:10:49.521Z,0.00
2019-05-12T03:12:10.501Z,0.00
2019-05-12T03:12:49.480Z,0.00
2019-05-12T03:13:49.467Z,0.00
2019-05-12T03:14:49.433Z,0.00
2019-05-12T03:15:49.415Z,0.00
2019-05-12T03:16:49.388Z,0.00
2019-05-12T03:18:10.364Z,0.00
2019-05-12T03:18:49.343Z,0.00
2019-05-12T03:19:49.334Z,0.00
2019-05-12T03:20:49.297Z,0.00
2019-05-12T03:21:49.287Z,0.00
2019-05-12T03:22:49.256Z,0.00
2019-05-12T03:24:10.234Z,0.00
2019-05-12T03:25:06.253Z,0.00
2019-05-12T03:25:49.190Z,0.00
2019-05-12T03:26:49.172Z,0.00
2019-05-12T03:27:49.150Z,0.00
2019-05-12T03:28:49.337Z,0.00
2019-05-12T03:30:12.315Z,0.00
2019-05-12T03:30:49.462Z,0.00
2019-05-12T03:31:49.573Z,0.00
2019-05-12T03:32:49.061Z,0.00
2019-05-12T03:33:52.945Z,0.00
2019-05-12T03:34:48.994Z,0.00
2019-05-12T03:36:10.575Z,0.00
2019-05-12T03:36:51.595Z,0.00
2019-05-12T03:37:48.921Z,0.00
2019-05-12T03:38:48.902Z,0.00
2019-05-12T03:39:48.882Z,0.00
2019-05-12T03:40:48.857Z,0.00
2019-05-12T03:42:09.845Z,0.00
2019-05-12T03:42:48.812Z,0.00
2019-05-12T03:43:48.796Z,0.00
2019-05-12T03:44:48.771Z,0.00
2019-05-12T03:45:48.744Z,0.00
2019-05-12T03:46:48.726Z,0.00
2019-05-12T03:48:09.709Z,0.00
2019-05-12T03:48:48.686Z,0.00
2019-05-12T03:49:48.660Z,0.00
2019-05-12T03:50:48.650Z,0.00
2019-05-12T03:51:48.619Z,0.00
2019-05-12T03:52:48.595Z,0.00
2019-05-12T03:54:09.579Z,0.00
2019-05-12T03:54:48.556Z,0.00
2019-05-12T03:55:48.540Z,0.00
2019-05-12T03:56:48.508Z,5.63
2019-05-12T03:57:48.485Z,5.63
2019-05-12T03:58:48.486Z,5.63
2019-05-12T04:00:09.441Z,5.63
2019-05-12T04:00:48.428Z,5.63
2019-05-12T04:01:48.419Z,5.63
2019-05-12T04:02:48.373Z,5.63
2019-05-12T04:03:48.350Z,5.63
2019-05-12T04:04:48.336Z,5.63
2019-05-12T04:06:09.314Z,5.63
2019-05-12T04:06:48.292Z,5.63
2019-05-12T04:07:48.271Z,5.63
2019-05-12T04:08:48.278Z,5.63
2019-05-12T04:09:48.222Z,5.63
2019-05-12T04:10:48.202Z,5.63
2019-05-12T04:12:09.183Z,11.25
2019-05-12T04:12:48.155Z,11.25
2019-05-12T04:13:48.136Z,11.25
2019-05-12T04:14:48.109Z,11.25
2019-05-12T04:15:48.977Z,11.25
2019-05-12T04:16:48.069Z,11.25
2019-05-12T04:18:09.050Z,11.25
2019-05-12T04:18:48.022Z,11.25
2019-05-12T04:19:48.004Z,11.25
2019-05-12T04:20:47.979Z,11.25
2019-05-12T04:21:47.954Z,11.25
2019-05-12T04:22:47.935Z,11.25
2019-05-12T04:24:08.911Z,11.25
2019-05-12T04:24:47.889Z,11.25
2019-05-12T04:25:53.947Z,11.25
2019-05-12T04:26:47.847Z,11.25
2019-05-12T04:27:47.829Z,11.25
2019-05-12T04:28:47.801Z,11.25
2019-05-12T04:30:08.782Z,11.25
2019-05-12T04:30:49.271Z,11.25
2019-05-12T04:31:47.746Z,11.25
2019-05-12T04:32:47.715Z,11.25
2019-05-12T04:33:47.694Z,11.25
2019-05-12T04:34:47.671Z,11.25
2019-05-12T04:36:08.691Z,11.25
2019-05-12T04:36:47.633Z,16.88
2019-05-12T04:37:47.606Z,16.88
2019-05-12T04:38:47.587Z,16.88
2019-05-12T04:39:47.564Z,16.88
2019-05-12T04:40:47.559Z,16.88
2019-05-12T04:42:08.519Z,16.88
2019-05-12T04:42:47.500Z,16.88
2019-05-12T04:43:47.471Z,16.88
2019-05-12T04:44:47.451Z,16.88
2019-05-12T04:45:47.430Z,16.88
2019-05-12T04:46:47.409Z,16.88
2019-05-12T04:48:08.385Z,22.50
2019-05-12T04:48:47.386Z,22.50
2019-05-12T04:49:47.342Z,22.50
2019-05-12T04:50:47.320Z,22.50
2019-05-12T04:51:47.297Z,28.13
2019-05-12T04:52:47.282Z,28.13
2019-05-12T04:54:08.249Z,28.13
2019-05-12T04:54:47.233Z,28.13
2019-05-12T04:56:04.502Z,33.75
2019-05-12T04:56:47.192Z,33.75
2019-05-12T04:57:47.161Z,33.75
2019-05-12T04:58:47.146Z,33.75
2019-05-12T05:00:08.119Z,33.75
2019-05-12T05:00:47.299Z,33.75
2019-05-12T05:01:47.076Z,39.38
2019-05-12T05:02:47.053Z,39.38
2019-05-12T05:03:47.030Z,39.38
2019-05-12T05:04:47.011Z,45.00
2019-05-12T05:06:07.995Z,45.00
2019-05-12T05:06:46.965Z,33.75
2019-05-12T05:07:46.947Z,39.38
2019-05-12T05:08:46.935Z,39.38
2019-05-12T05:09:46.898Z,45.00
2019-05-12T05:10:46.876Z,39.38
2019-05-12T05:12:07.855Z,39.38
2019-05-12T05:12:46.831Z,33.75
2019-05-12T05:13:46.814Z,39.38
2019-05-12T05:14:46.796Z,39.38
2019-05-12T05:15:46.768Z,39.38
2019-05-12T05:16:46.755Z,45.00
2019-05-12T05:18:07.741Z,50.63
2019-05-12T05:18:46.701Z,45.00
2019-05-12T05:19:46.684Z,45.00
2019-05-12T05:20:46.661Z,45.00
2019-05-12T05:21:46.634Z,45.00
2019-05-12T05:22:46.621Z,45.00
2019-05-12T05:24:07.602Z,39.38
2019-05-12T05:24:46.575Z,45.00
2019-05-12T05:25:46.550Z,50.63
2019-05-12T05:26:46.531Z,50.63
2019-05-12T05:27:46.506Z,56.25
2019-05-12T05:28:46.485Z,56.25
2019-05-12T05:30:07.467Z,50.63
2019-05-12T05:30:46.441Z,45.00
2019-05-12T05:31:47.288Z,45.00
2019-05-12T05:32:46.399Z,50.63
2019-05-12T05:33:46.374Z,56.25
2019-05-12T05:34:55.811Z,39.38
2019-05-12T05:36:09.003Z,45.00
2019-05-12T05:36:46.307Z,45.00
2019-05-12T05:37:46.293Z,39.38
2019-05-12T05:38:46.273Z,39.38
2019-05-12T05:39:49.532Z,39.38
2019-05-12T05:40:46.224Z,39.38
2019-05-12T05:42:07.289Z,28.13
2019-05-12T05:42:46.182Z,28.13
2019-05-12T05:43:48.568Z,28.13
2019-05-12T05:44:46.142Z,28.13
2019-05-12T05:45:46.122Z,45.00
2019-05-12T05:46:49.947Z,45.00
2019-05-12T05:48:10.061Z,45.00
2019-05-12T05:48:46.057Z,39.38
2019-05-12T05:49:46.037Z,56.25
2019-05-12T05:50:46.011Z,61.88
2019-05-12T05:51:53.667Z,67.50
2019-05-12T05:52:45.963Z,61.88
2019-05-12T05:54:06.950Z,56.25
2019-05-12T05:54:45.925Z,56.25
2019-05-12T05:55:50.313Z,50.63
2019-05-12T05:56:57.694Z,39.38
2019-05-12T05:57:45.857Z,50.63
2019-05-12T05:58:51.531Z,73.13
2019-05-12T06:00:16.404Z,73.13
2019-05-12T06:00:45.795Z,67.50
2019-05-12T06:01:51.699Z,56.25
2019-05-12T06:02:45.751Z,61.88
2019-05-12T06:03:47.565Z,61.88
2019-05-12T06:04:49.776Z,61.88
2019-05-12T06:06:12.225Z,56.25
2019-05-12T06:06:50.612Z,45.00
2019-05-12T06:07:45.646Z,39.38
2019-05-12T06:08:45.622Z,33.75
2019-05-12T06:09:45.595Z,39.38
2019-05-12T06:10:45.579Z,39.38
2019-05-12T06:12:09.692Z,39.38
2019-05-12T06:12:50.705Z,50.63
2019-05-12T06:13:45.515Z,56.25
2019-05-12T06:14:48.804Z,73.13
2019-05-12T06:15:45.472Z,73.13
2019-05-12T06:16:45.452Z,67.50
2019-05-12T06:18:06.433Z,78.75
2019-05-12T06:18:45.411Z,84.38
2019-05-12T06:19:45.387Z,78.75
2019-05-12T06:20:45.365Z,73.13
2019-05-12T06:21:46.012Z,61.88
2019-05-12T06:22:48.739Z,56.25
2019-05-12T06:24:08.844Z,56.25
2019-05-12T06:24:49.048Z,50.63
2019-05-12T06:25:50.600Z,50.63
2019-05-12T06:26:56.732Z,50.63
2019-05-12T06:27:45.214Z,67.50
2019-05-12T06:28:45.203Z,84.38
2019-05-12T06:30:06.492Z,95.63
2019-05-12T06:30:49.911Z,84.38
2019-05-12T06:31:45.133Z,67.50
2019-05-12T06:32:50.494Z,61.88
2019-05-12T06:33:45.088Z,50.63
2019-05-12T06:34:45.072Z,56.25
2019-05-12T06:36:07.552Z,61.88
2019-05-12T06:36:45.030Z,61.88
2019-05-12T06:37:57.097Z,67.50
2019-05-12T06:38:44.990Z,67.50
2019-05-12T06:39:44.967Z,61.88
2019-05-12T06:40:45.602Z,61.88
2019-05-12T06:42:12.413Z,56.25
2019-05-12T06:42:48.346Z,61.88
2019-05-12T06:43:45.425Z,73.13
2019-05-12T06:44:48.942Z,73.13
2019-05-12T06:45:45.693Z,73.13
2019-05-12T06:46:44.822Z,73.13
2019-05-12T06:48:05.802Z,78.75
2019-05-12T06:48:45.564Z,61.88
2019-05-12T06:49:48.800Z,73.13
2019-05-12T06:50:44.735Z,73.13
2019-05-12T06:51:44.713Z,78.75
2019-05-12T06:52:49.003Z,78.75
2019-05-12T06:54:11.890Z,73.13
2019-05-12T06:54:51.455Z,67.50
2019-05-12T06:55:44.633Z,73.13
2019-05-12T06:56:44.607Z,67.50
2019-05-12T06:57:49.893Z,67.50
2019-05-12T06:58:47.078Z,90.00
2019-05-12T07:00:05.556Z,106.88
2019-05-12T07:00:45.451Z,95.63
2019-05-12T07:01:45.111Z,95.63
2019-05-12T07:02:50.036Z,112.50
2019-05-12T07:03:44.512Z,112.50
2019-05-12T07:04:49.797Z,106.88
2019-05-12T07:06:09.188Z,95.63
2019-05-12T07:06:44.409Z,90.00
2019-05-12T07:07:46.030Z,73.13
2019-05-12T07:08:44.366Z,73.13
2019-05-12T07:09:53.486Z,73.13
2019-05-12T07:10:46.897Z,67.50
2019-05-12T07:12:07.090Z,61.88
2019-05-12T07:12:58.267Z,56.25
2019-05-12T07:13:44.260Z,50.63
2019-05-12T07:14:44.241Z,50.63
2019-05-12T07:15:44.246Z,45.00
2019-05-12T07:16:44.223Z,78.75
2019-05-12T07:18:05.183Z,101.25
2019-05-12T07:18:44.158Z,101.25
2019-05-12T07:19:44.141Z,73.13
2019-05-12T07:20:44.122Z,56.25
2019-05-12T07:21:44.097Z,50.63
2019-05-12T07:22:48.366Z,45.00
2019-05-12T07:24:06.798Z,67.50
2019-05-12T07:24:50.208Z,67.50
2019-05-12T07:25:44.643Z,61.88
2019-05-12T07:26:44.609Z,67.50
2019-05-12T07:27:45.621Z,84.38
2019-05-12T07:28:43.958Z,106.88
2019-05-12T07:30:04.940Z,123.75
2019-05-12T07:30:44.222Z,135.00
2019-05-12T07:31:44.198Z,151.88
2019-05-12T07:32:43.873Z,163.13
2019-05-12T07:33:45.827Z,157.50
2019-05-12T07:34:43.842Z,157.50
2019-05-12T07:36:06.433Z,112.50
2019-05-12T07:36:44.320Z,90.00
2019-05-12T07:37:43.774Z,78.75
2019-05-12T07:38:43.750Z,78.75
2019-05-12T07:39:45.490Z,90.00
2019-05-12T07:40:44.407Z,90.00
2019-05-12T07:42:05.417Z,84.38
2019-05-12T07:42:43.946Z,90.00
2019-05-12T07:43:44.358Z,101.25
2019-05-12T07:44:44.143Z,123.75
2019-05-12T07:45:44.156Z,135.00
2019-05-12T07:46:47.747Z,157.50
2019-05-12T07:48:08.537Z,163.13
2019-05-12T07:48:46.508Z,118.13
2019-05-12T07:49:44.116Z,84.38
2019-05-12T07:50:43.509Z,123.75
2019-05-12T07:51:44.690Z,157.50
2019-05-12T07:52:44.169Z,168.75
2019-05-12T07:54:04.447Z,168.75
2019-05-12T07:54:44.472Z,180.00
2019-05-12T07:55:47.546Z,129.38
2019-05-12T07:56:44.210Z,129.38
2019-05-12T07:57:52.970Z,151.88
2019-05-12T07:58:47.502Z,146.25
2019-05-12T08:00:04.333Z,123.75
2019-05-12T08:00:44.242Z,106.88
2019-05-12T08:01:50.732Z,112.50
2019-05-12T08:02:44.334Z,118.13
2019-05-12T08:03:43.743Z,106.88
2019-05-12T08:04:44.009Z,84.38
2019-05-12T08:06:04.695Z,84.38
2019-05-12T08:06:46.678Z,90.00
2019-05-12T08:07:44.441Z,101.25
2019-05-12T08:08:50.390Z,129.38
2019-05-12T08:09:43.265Z,112.50
2019-05-12T08:10:44.291Z,106.88
2019-05-12T08:12:04.167Z,78.75
2019-05-12T08:12:44.504Z,73.13
2019-05-12T08:13:43.889Z,78.75
2019-05-12T08:14:43.984Z,90.00
2019-05-12T08:15:45.772Z,101.25
2019-05-12T08:16:43.768Z,118.13
2019-05-12T08:18:07.821Z,146.25
2019-05-12T08:18:44.458Z,157.50
2019-05-12T08:19:44.339Z,146.25
2019-05-12T08:20:43.617Z,135.00
2019-05-12T08:21:48.585Z,129.38
2019-05-12T08:22:43.765Z,123.75
2019-05-12T08:24:03.933Z,146.25
2019-05-12T08:24:45.838Z,151.88
2019-05-12T08:25:43.647Z,151.88
2019-05-12T08:26:43.564Z,157.50
2019-05-12T08:27:45.173Z,163.13
2019-05-12T08:28:44.238Z,151.88
2019-05-12T08:30:06.183Z,135.00
2019-05-12T08:30:47.402Z,129.38
2019-05-12T08:31:44.060Z,112.50
2019-05-12T08:32:44.386Z,84.38
2019-05-12T08:33:43.633Z,78.75
2019-05-12T08:34:43.767Z,90.00
2019-05-12T08:36:11.427Z,118.13
2019-05-12T08:36:45.093Z,135.00
2019-05-12T08:37:44.137Z,146.25
2019-05-12T08:38:44.443Z,151.88
2019-05-12T08:39:44.329Z,163.13
2019-05-12T08:40:46.398Z,151.88
2019-05-12T08:42:04.094Z,129.38
2019-05-12T08:42:43.613Z,146.25
2019-05-12T08:43:47.181Z,196.88
2019-05-12T08:44:43.916Z,202.50
2019-05-12T08:45:44.295Z,174.38
2019-05-12T08:46:51.197Z,163.13
2019-05-12T08:48:03.955Z,129.38
2019-05-12T08:48:44.695Z,112.50
2019-05-12T08:49:51.128Z,101.25
2019-05-12T08:50:45.358Z,90.00
2019-05-12T08:51:44.259Z,95.63
2019-05-12T08:52:44.221Z,90.00
2019-05-12T08:54:07.849Z,90.00
2019-05-12T08:54:45.479Z,90.00
2019-05-12T08:55:43.575Z,90.00
2019-05-12T08:56:43.639Z,95.63
2019-05-12T08:57:49.276Z,101.25
2019-05-12T08:58:48.218Z,95.63
2019-05-12T09:00:08.267Z,95.63
2019-05-12T09:00:50.085Z,101.25
2019-05-12T09:01:43.819Z,101.25
2019-05-12T09:02:48.741Z,106.88
2019-05-12T09:03:44.084Z,106.88
2019-05-12T09:04:43.107Z,112.50
2019-05-12T09:06:04.071Z,123.75
2019-05-12T09:06:43.474Z,168.75
2019-05-12T09:07:43.529Z,185.63
2019-05-12T09:08:45.093Z,185.63
2019-05-12T09:09:43.886Z,225.00
2019-05-12T09:10:41.947Z,247.50
2019-05-12T09:12:03.560Z,196.88
2019-05-12T09:12:44.016Z,106.88
2019-05-12T09:13:43.432Z,84.38
2019-05-12T09:14:46.218Z,78.75
2019-05-12T09:15:43.779Z,73.13
2019-05-12T09:16:43.832Z,84.38
2019-05-12T09:18:04.841Z,106.88
2019-05-12T09:18:43.511Z,106.88
2019-05-12T09:19:43.633Z,112.50
2019-05-12T09:20:48.846Z,129.38
2019-05-12T09:21:44.039Z,123.75
2019-05-12T09:22:43.242Z,106.88
2019-05-12T09:24:04.140Z,106.88
2019-05-12T09:24:43.972Z,106.88
2019-05-12T09:25:45.098Z,84.38
2019-05-12T09:26:43.380Z,67.50
2019-05-12T09:27:47.614Z,73.13
2019-05-12T09:28:49.907Z,67.50
2019-05-12T09:30:07.668Z,101.25
2019-05-12T09:30:46.900Z,101.25
2019-05-12T09:31:43.915Z,73.13
2019-05-12T09:32:47.392Z,73.13
2019-05-12T09:33:41.565Z,118.13
2019-05-12T09:34:44.673Z,129.38
2019-05-12T09:36:04.310Z,168.75
2019-05-12T09:36:41.450Z,208.13
2019-05-12T09:37:41.442Z,253.13
2019-05-12T09:38:41.416Z,264.38
2019-05-12T09:39:43.569Z,241.88
2019-05-12T09:40:43.543Z,213.75
2019-05-12T09:42:03.808Z,163.13
2019-05-12T09:42:41.335Z,140.63
2019-05-12T09:43:46.330Z,118.13
2019-05-12T09:44:43.417Z,123.75
2019-05-12T09:45:51.382Z,135.00
2019-05-12T09:46:41.260Z,151.88
2019-05-12T09:48:04.868Z,163.13
2019-05-12T09:48:48.464Z,168.75
2019-05-12T09:49:41.199Z,225.00
2019-05-12T09:50:45.668Z,208.13
2019-05-12T09:51:42.908Z,213.75
2019-05-12T09:52:41.144Z,196.88
2019-05-12T09:54:02.123Z,202.50
2019-05-12T09:54:41.175Z,230.63
2019-05-12T09:55:43.613Z,202.50
2019-05-12T09:56:41.939Z,168.75
2019-05-12T09:57:42.946Z,135.00
2019-05-12T09:58:41.034Z,112.50
2019-05-12T10:00:04.256Z,129.38
2019-05-12T10:00:43.345Z,123.75
2019-05-12T10:01:43.868Z,118.13
2019-05-12T10:02:43.422Z,123.75
2019-05-12T10:03:40.940Z,146.25
2019-05-12T10:04:40.931Z,202.50
2019-05-12T10:06:03.680Z,213.75
2019-05-12T10:06:40.908Z,180.00
2019-05-12T10:07:40.863Z,146.25
2019-05-12T10:08:40.850Z,191.25
2019-05-12T10:09:40.822Z,258.75
2019-05-12T10:10:43.748Z,275.63
2019-05-12T10:12:03.256Z,275.63
2019-05-12T10:12:46.134Z,247.50
2019-05-12T10:13:40.749Z,230.63
2019-05-12T10:14:45.653Z,180.00
2019-05-12T10:15:40.715Z,146.25
2019-05-12T10:16:47.898Z,180.00
2019-05-12T10:18:06.387Z,208.13
2019-05-12T10:18:43.132Z,202.50
2019-05-12T10:19:40.640Z,202.50
2019-05-12T10:20:40.632Z,163.13
2019-05-12T10:21:40.602Z,196.88
2019-05-12T10:22:40.588Z,191.25
2019-05-12T10:24:04.477Z,180.00
2019-05-12T10:24:47.008Z,180.00
2019-05-12T10:25:41.502Z,185.63
2019-05-12T10:26:41.133Z,185.63
2019-05-12T10:27:40.533Z,225.00
2019-05-12T10:28:45.342Z,281.25
2019-05-12T10:30:03.280Z,320.63
2019-05-12T10:30:40.441Z,286.88
2019-05-12T10:31:40.424Z,281.25
2019-05-12T10:32:40.407Z,303.75
2019-05-12T10:33:40.467Z,241.88
2019-05-12T10:34:40.529Z,236.25
2019-05-12T10:36:06.799Z,225.00
2019-05-12T10:36:46.910Z,225.00
2019-05-12T10:37:40.316Z,225.00
2019-05-12T10:38:40.293Z,213.75
2019-05-12T10:39:40.275Z,253.13
2019-05-12T10:40:40.272Z,275.63
2019-05-12T10:42:01.242Z,247.50
2019-05-12T10:42:46.072Z,303.75
2019-05-12T10:43:40.207Z,309.38
2019-05-12T10:44:40.876Z,303.75
2019-05-12T10:45:40.174Z,303.75
2019-05-12T10:46:42.450Z,309.38
2019-05-12T10:48:03.416Z,326.25
2019-05-12T10:48:40.116Z,225.00
2019-05-12T10:49:40.096Z,202.50
2019-05-12T10:50:40.088Z,118.13
2019-05-12T10:51:40.062Z,112.50
2019-05-12T10:52:40.047Z,118.13
2019-05-12T10:54:09.199Z,180.00
2019-05-12T10:54:40.010Z,185.63
2019-05-12T10:55:40.899Z,185.63
2019-05-12T10:56:39.977Z,208.13
2019-05-12T10:57:39.962Z,236.25
2019-05-12T10:58:39.938Z,236.25
2019-05-12T11:00:00.934Z,180.00
2019-05-12T11:00:39.908Z,230.63
2019-05-12T11:01:47.200Z,185.63
2019-05-12T11:02:39.877Z,135.00
2019-05-12T11:03:42.904Z,236.25
2019-05-12T11:04:41.210Z,258.75
2019-05-12T11:06:03.136Z,241.88
2019-05-12T11:06:44.031Z,270.00
2019-05-12T11:07:39.792Z,320.63
2019-05-12T11:08:41.356Z,303.75
2019-05-12T11:09:39.742Z,270.00
2019-05-12T11:10:39.728Z,303.75
2019-05-12T11:12:00.711Z,388.13
2019-05-12T11:12:39.709Z,1305.00
2019-05-12T11:13:40.278Z,3195.00
2019-05-12T11:14:39.657Z,3723.75
2019-05-12T11:15:44.842Z,3892.50
2019-05-12T11:16:41.910Z,3960.00
2019-05-12T11:18:00.615Z,3858.75
2019-05-12T11:18:39.588Z,3825.00
2019-05-12T11:19:45.896Z,3886.88
2019-05-12T11:20:39.552Z,2761.88
2019-05-12T11:21:39.540Z,495.00
2019-05-12T11:22:39.522Z,331.88
2019-05-12T11:24:00.518Z,438.75
2019-05-12T11:24:39.597Z,371.25
2019-05-12T11:25:39.473Z,736.88
2019-05-12T11:26:39.453Z,219.38
2019-05-12T11:27:39.445Z,219.38
2019-05-12T11:28:39.432Z,174.38
2019-05-12T11:30:00.405Z,151.88
2019-05-12T11:30:39.405Z,157.50
2019-05-12T11:31:39.385Z,2441.25
2019-05-12T11:32:39.353Z,3993.75
2019-05-12T11:33:39.339Z,4033.13
2019-05-12T11:34:39.325Z,3875.63
2019-05-12T11:36:00.316Z,3628.13
2019-05-12T11:36:39.288Z,3543.75
2019-05-12T11:37:39.274Z,3926.25
2019-05-12T11:38:39.264Z,410.63
2019-05-12T11:39:44.532Z,1968.75
2019-05-12T11:40:40.117Z,4140.00
2019-05-12T11:42:00.230Z,4291.88
2019-05-12T11:42:39.203Z,3886.88
2019-05-12T11:43:40.146Z,3223.13
2019-05-12T11:44:39.224Z,2981.25
2019-05-12T11:45:39.174Z,3493.13
2019-05-12T11:46:39.142Z,4083.75
2019-05-12T11:48:05.960Z,3375.00
2019-05-12T11:48:40.347Z,444.38
2019-05-12T11:49:39.169Z,1299.38
2019-05-12T11:50:40.557Z,2761.88
2019-05-12T11:51:39.084Z,1670.63
2019-05-12T11:52:39.073Z,225.00
2019-05-12T11:54:03.533Z,151.88
2019-05-12T11:54:41.265Z,146.25
2019-05-12T11:55:39.037Z,140.63
2019-05-12T11:56:40.234Z,123.75
2019-05-12T11:57:39.010Z,118.13
2019-05-12T11:58:46.197Z,123.75
2019-05-12T12:00:02.270Z,129.38
2019-05-12T12:00:38.982Z,129.38
2019-05-12T12:01:39.721Z,129.38
2019-05-12T12:02:38.947Z,157.50
2019-05-12T12:03:38.945Z,180.00
2019-05-12T12:04:38.928Z,202.50
2019-05-12T12:05:59.910Z,258.75
2019-05-12T12:06:38.896Z,478.13
2019-05-12T12:07:47.831Z,3628.13
2019-05-12T12:08:38.895Z,2300.63
2019-05-12T12:09:38.859Z,1546.88
2019-05-12T12:10:40.034Z,759.38
2019-05-12T12:12:03.265Z,556.88
2019-05-12T12:12:39.661Z,416.25
2019-05-12T12:13:38.813Z,348.75
2019-05-12T12:14:40.133Z,326.25
2019-05-12T12:15:38.776Z,298.13
2019-05-12T12:16:44.323Z,264.38
2019-05-12T12:18:06.055Z,208.13
2019-05-12T12:18:38.737Z,185.63
2019-05-12T12:19:43.959Z,163.13
2019-05-12T12:20:38.712Z,146.25
2019-05-12T12:21:40.480Z,140.63
2019-05-12T12:22:38.688Z,135.00
2019-05-12T12:23:59.679Z,129.38
2019-05-12T12:24:38.659Z,123.75
2019-05-12T12:25:43.062Z,123.75
2019-05-12T12:26:38.653Z,123.75
2019-05-12T12:27:38.618Z,112.50
2019-05-12T12:28:38.639Z,106.88
2019-05-12T12:30:14.611Z,95.63
2019-05-12T12:30:38.574Z,95.63
2019-05-12T12:31:38.934Z,95.63
2019-05-12T12:32:38.544Z,101.25
2019-05-12T12:33:40.677Z,112.50
2019-05-12T12:34:38.512Z,118.13
2019-05-12T12:36:00.844Z,123.75
2019-05-12T12:36:38.484Z,135.00
2019-05-12T12:37:38.479Z,163.13
2019-05-12T12:38:38.460Z,219.38
2019-05-12T12:39:38.504Z,286.88
2019-05-12T12:40:38.432Z,613.13
2019-05-12T12:42:00.726Z,855.00
2019-05-12T12:42:44.142Z,1361.25
2019-05-12T12:43:38.417Z,663.75
2019-05-12T12:44:38.366Z,888.75
2019-05-12T12:45:40.407Z,1518.75
2019-05-12T12:46:38.338Z,4117.50
2019-05-12T12:47:59.331Z,1035.00
2019-05-12T12:48:38.310Z,630.00
2019-05-12T12:49:39.847Z,765.00